createdAt,value
2023-04-05T00:02:00.901Z,215816.00
2023-04-05T00:08:04.629Z,215836.00
2023-04-05T00:14:06.818Z,215828.00
2023-04-05T00:20:10.757Z,215836.00
2023-04-05T00:26:13.331Z,215848.00
2023-04-05T00:32:20.471Z,215856.00
2023-04-05T00:38:22.974Z,215856.00
2023-04-05T00:44:25.022Z,215870.00
2023-04-05T00:50:31.166Z,215889.00
2023-04-05T00:56:33.579Z,215875.00
2023-04-05T01:02:50.229Z,215917.00
2023-04-05T01:09:21.114Z,215917.00
2023-04-05T01:15:23.862Z,215909.00
2023-04-05T01:21:38.333Z,215917.00
2023-04-05T01:28:07.110Z,215971.00
2023-04-05T01:34:23.931Z,215993.00
2023-04-05T01:40:26.346Z,216034.00
2023-04-05T01:46:28.476Z,211977.00
2023-04-05T01:52:31.208Z,212025.00
2023-04-05T01:58:33.849Z,212011.00
2023-04-05T02:04:36.261Z,216054.00
2023-04-05T02:10:39.229Z,215999.00
2023-04-05T02:16:41.963Z,215957.00
2023-04-05T02:22:45.932Z,215971.00
2023-04-05T02:28:48.501Z,215965.00
2023-04-05T02:34:50.799Z,215943.00
2023-04-05T02:40:52.858Z,215979.00
2023-04-05T02:46:55.034Z,215971.00
2023-04-05T02:53:03.194Z,215957.00
2023-04-05T02:59:05.910Z,215965.00
2023-04-05T03:05:09.718Z,215979.00
2023-04-05T03:11:13.143Z,215979.00
2023-04-05T03:17:19.165Z,216013.00
2023-04-05T03:23:32.372Z,216054.00
2023-04-05T03:29:36.329Z,212017.00
2023-04-05T03:35:47.156Z,212039.00
2023-04-05T03:41:50.917Z,212050.00
2023-04-05T03:47:53.598Z,212078.00
2023-04-05T03:53:56.805Z,212106.00
2023-04-05T04:00:02.170Z,212162.00
2023-04-05T04:06:19.221Z,212154.00
2023-04-05T04:12:23.294Z,212120.00
2023-04-05T04:18:32.900Z,212114.00
2023-04-05T04:24:54.178Z,212168.00
2023-04-05T04:31:15.522Z,212203.00
2023-04-05T04:38:01.686Z,212242.00
2023-04-05T04:44:28.570Z,212262.00
2023-04-05T04:50:53.086Z,212276.00
2023-04-05T04:56:57.609Z,212351.00
2023-04-05T05:02:59.897Z,212337.00
2023-04-05T05:09:02.253Z,212357.00
2023-04-05T05:15:08.213Z,212371.00
2023-04-05T05:21:10.487Z,212427.00
2023-04-05T05:27:12.946Z,212447.00
2023-04-05T05:33:15.264Z,212468.00
2023-04-05T05:39:18.177Z,212507.00
2023-04-05T05:45:20.411Z,212535.00
2023-04-05T05:51:22.829Z,212521.00
2023-04-05T05:57:25.364Z,212535.00
2023-04-05T06:03:30.338Z,212563.00
2023-04-05T06:09:35.732Z,212604.00
2023-04-05T06:15:38.232Z,212569.00
2023-04-05T06:21:40.705Z,212646.00
2023-04-05T06:27:43.164Z,212800.00
2023-04-05T06:33:45.637Z,212925.00
2023-04-05T06:39:47.836Z,212883.00
2023-04-05T06:45:50.262Z,212961.00
2023-04-05T06:51:52.770Z,213081.00
2023-04-05T06:57:55.206Z,213103.00
2023-04-05T07:03:57.821Z,213117.00
2023-04-05T07:09:59.985Z,213212.00
2023-04-05T07:16:04.081Z,213212.00
2023-04-05T07:22:06.782Z,213509.00
2023-04-05T07:28:09.011Z,213811.00
2023-04-05T07:34:11.526Z,213489.00
2023-04-05T07:40:14.203Z,213292.00
2023-04-05T07:46:20.223Z,213170.00
2023-04-05T07:52:22.769Z,213262.00
2023-04-05T07:58:26.240Z,213150.00
2023-04-05T08:04:28.747Z,213158.00
2023-04-05T08:10:31.476Z,213075.00
2023-04-05T08:16:34.253Z,213097.00
2023-04-05T08:22:36.867Z,213350.00
2023-04-05T08:28:39.087Z,213417.00
2023-04-05T08:34:41.593Z,213417.00
2023-04-05T08:40:48.025Z,213404.00
2023-04-05T08:46:51.473Z,213425.00
2023-04-05T08:52:54.102Z,213370.00
2023-04-05T08:59:06.474Z,213404.00
2023-04-05T09:05:11.579Z,213370.00
2023-04-05T09:11:14.835Z,213390.00
2023-04-05T09:17:20.591Z,213425.00
2023-04-05T09:23:23.054Z,213561.00
2023-04-05T09:29:31.651Z,213961.00
2023-04-05T09:35:37.258Z,214634.00
2023-04-05T09:41:39.941Z,214919.00
2023-04-05T09:47:42.659Z,215552.00
2023-04-05T09:53:59.216Z,216353.00
2023-04-05T10:00:01.779Z,215734.00
2023-04-05T10:06:04.337Z,215720.00
2023-04-05T10:12:08.611Z,215959.00
2023-04-05T10:18:21.214Z,215656.00
2023-04-05T10:24:23.422Z,215217.00
2023-04-05T10:30:33.139Z,215008.00
2023-04-05T10:36:58.302Z,214903.00
2023-04-05T10:43:01.545Z,214966.00
2023-04-05T10:49:12.952Z,215132.00
2023-04-05T10:55:17.112Z,215574.00
2023-04-05T11:01:21.858Z,215560.00
2023-04-05T11:07:24.403Z,215363.00
2023-04-05T11:13:53.420Z,215405.00
2023-04-05T11:20:04.233Z,215748.00
2023-04-05T11:26:07.307Z,215791.00
2023-04-05T11:32:13.208Z,215734.00
2023-04-05T11:38:22.825Z,215477.00
2023-04-05T11:44:25.726Z,215449.00
2023-04-05T11:50:28.843Z,215866.00
2023-04-05T11:56:31.222Z,215923.00
2023-04-05T12:02:35.821Z,215929.00
2023-04-05T12:08:51.862Z,216133.00
2023-04-05T12:14:59.926Z,215951.00
2023-04-05T12:21:06.970Z,215805.00
2023-04-05T12:27:09.977Z,215769.00
2023-04-05T12:33:12.639Z,215615.00
2023-04-05T12:39:16.310Z,215510.00
2023-04-05T12:45:19.143Z,215217.00
2023-04-05T12:51:21.530Z,215098.00
2023-04-05T12:57:33.266Z,215030.00
2023-04-05T13:03:36.650Z,215090.00
2023-04-05T13:09:39.894Z,215253.00
2023-04-05T13:15:42.712Z,215502.00
2023-04-05T13:21:45.672Z,215678.00
2023-04-05T13:27:48.224Z,215742.00
2023-04-05T13:33:50.677Z,215734.00
2023-04-05T13:39:52.986Z,215642.00
2023-04-05T13:45:55.373Z,215510.00
2023-04-05T13:51:57.678Z,215363.00
2023-04-05T13:58:00.278Z,215239.00
2023-04-05T14:04:02.690Z,215092.00
2023-04-05T14:10:07.037Z,215030.00
2023-04-05T14:16:09.480Z,215112.00
2023-04-05T14:22:11.900Z,215225.00
2023-04-05T14:28:14.275Z,215239.00
2023-04-05T14:34:17.033Z,215355.00
2023-04-05T14:40:19.521Z,215261.00
2023-04-05T14:46:22.244Z,215146.00
2023-04-05T14:52:24.792Z,214938.00
2023-04-05T14:58:29.218Z,214827.00
2023-04-05T15:04:32.117Z,214814.00
2023-04-05T15:10:34.563Z,214855.00
2023-04-05T15:16:36.835Z,214841.00
2023-04-05T15:22:41.378Z,214849.00
2023-04-05T15:28:43.896Z,214737.00
2023-04-05T15:34:46.619Z,214675.00
2023-04-05T15:40:52.756Z,214640.00
2023-04-05T15:46:55.039Z,214510.00
2023-04-05T15:52:57.746Z,214376.00
2023-04-05T15:59:00.407Z,214238.00
2023-04-05T16:05:02.972Z,214169.00
2023-04-05T16:11:05.711Z,214183.00
2023-04-05T16:17:08.221Z,214113.00
2023-04-05T16:23:10.989Z,214078.00
2023-04-05T16:29:13.352Z,214033.00
2023-04-05T16:35:16.194Z,213975.00
2023-04-05T16:41:18.663Z,214025.00
2023-04-05T16:47:21.170Z,213936.00
2023-04-05T16:53:23.557Z,213830.00
2023-04-05T16:59:26.493Z,213797.00
2023-04-05T17:05:29.788Z,213714.00
2023-04-05T17:11:32.112Z,213645.00
2023-04-05T17:17:34.487Z,213595.00
2023-04-05T17:23:36.704Z,213575.00
2023-04-05T17:29:39.586Z,213509.00
2023-04-05T17:35:42.116Z,213509.00
2023-04-05T17:41:46.665Z,213453.00
2023-04-05T17:47:49.244Z,213384.00
2023-04-05T17:53:51.577Z,213390.00
2023-04-05T17:59:54.117Z,213384.00
2023-04-05T18:05:56.628Z,213322.00
2023-04-05T18:11:59.671Z,213322.00
2023-04-05T18:18:02.694Z,213272.00
2023-04-05T18:24:05.478Z,213254.00
2023-04-05T18:30:07.881Z,213254.00
2023-04-05T18:36:10.418Z,213212.00
2023-04-05T18:42:13.320Z,213158.00
2023-04-05T18:48:15.806Z,213117.00
2023-04-05T18:54:18.873Z,213067.00
2023-04-05T19:00:25.647Z,212995.00
2023-04-05T19:06:28.374Z,212967.00
2023-04-05T19:12:30.877Z,212945.00
2023-04-05T19:18:33.584Z,212905.00
2023-04-05T19:24:35.699Z,212864.00
2023-04-05T19:30:41.033Z,212808.00
2023-04-05T19:36:43.593Z,212774.00
2023-04-05T19:42:47.922Z,212714.00
2023-04-05T19:48:50.457Z,212692.00
2023-04-05T19:54:53.009Z,212680.00
2023-04-05T20:00:55.898Z,212618.00
2023-04-05T20:06:58.311Z,212588.00
2023-04-05T20:13:00.865Z,212535.00
2023-04-05T20:19:07.676Z,212549.00
2023-04-05T20:25:43.769Z,212427.00
2023-04-05T20:31:46.524Z,212441.00
2023-04-05T20:37:50.033Z,212427.00
2023-04-05T20:43:52.618Z,212385.00
2023-04-05T20:49:55.093Z,212421.00
2023-04-05T20:55:57.668Z,212357.00
2023-04-05T21:01:59.904Z,212284.00
2023-04-05T21:08:02.361Z,212284.00
2023-04-05T21:14:04.990Z,212223.00
2023-04-05T21:20:07.754Z,212148.00
2023-04-05T21:26:10.268Z,212086.00
2023-04-05T21:32:12.519Z,212045.00
2023-04-05T21:38:15.933Z,216054.00
2023-04-05T21:44:18.394Z,212003.00
2023-04-05T21:50:21.553Z,212031.00
2023-04-05T21:56:24.006Z,216054.00
2023-04-05T22:02:26.647Z,216020.00
2023-04-05T22:08:29.388Z,215999.00
2023-04-05T22:14:31.966Z,216060.00
2023-04-05T22:20:34.819Z,215999.00
2023-04-05T22:26:38.710Z,216013.00
2023-04-05T22:32:41.360Z,215987.00
2023-04-05T22:38:43.705Z,215917.00
2023-04-05T22:44:46.180Z,215923.00
2023-04-05T22:50:48.570Z,215903.00
2023-04-05T22:56:51.384Z,215937.00
2023-04-05T23:02:53.753Z,215903.00
2023-04-05T23:08:56.503Z,215870.00
2023-04-05T23:14:58.817Z,215797.00
2023-04-05T23:21:01.404Z,215775.00
2023-04-05T23:27:03.808Z,215816.00
2023-04-05T23:33:06.382Z,215755.00
2023-04-05T23:39:08.872Z,215767.00
2023-04-05T23:45:11.751Z,215755.00
2023-04-05T23:51:13.873Z,215680.00
2023-04-05T23:57:16.106Z,215680.00
